Time;durP1;ratioP1;P1;durP2;ratioP2;P2;SDS_P1;SDS_P2;PMS_P1;PMS_P2;Temp;Humidity;BMP_temperature;BMP_pressure;BME280_temperature;BME280_humidity;BME280_pressure;Samples;Min_cycle;Max_cycle;Signal;HPM_P1;HPM_P2
2022/04/27 00:01:47;;;;;;;15.75;10.48;;;;;;;5.87;93.33;67427.28;6031532;23;20019;-85
2022/04/27 00:04:12;;;;;;;18.02;11.48;;;;;;;5.83;93.20;67422.75;6032328;23;20030;-86
2022/04/27 00:06:38;;;;;;;15.82;10.45;;;;;;;;;;6034106;23;20019;-84
2022/04/27 00:09:04;;;;;;;18.95;11.07;;;;;;;5.85;93.16;67430.88;6046093;23;20051;-84
2022/04/27 00:11:29;;;;;;;15.00;10.80;;;;;;;5.82;93.06;67424.28;6045233;23;20071;-85
2022/04/27 00:13:56;;;;;;;13.93;10.57;;;;;;;5.79;93.13;67418.81;6047010;23;20079;-85
2022/04/27 00:16:21;;;;;;;16.52;11.85;;;;;;;;;;6044746;23;20019;-84
2022/04/27 00:18:46;;;;;;;18.75;11.55;;;;;;;5.65;94.10;67405.63;6035779;23;20492;-84
2022/04/27 00:21:12;;;;;;;17.33;11.07;;;;;;;5.62;94.55;67400.16;6033945;23;20016;-84
2022/04/27 00:23:37;;;;;;;19.75;12.30;;;;;;;5.55;94.64;67391.66;6033331;23;20102;-84
2022/04/27 00:26:03;;;;;;;17.25;11.82;;;;;;;5.58;94.70;67395.06;6056102;23;20523;-84
2022/04/27 00:28:28;;;;;;;14.20;10.65;;;;;;;5.62;94.41;67405.44;6032920;23;20022;-84
2022/04/27 00:30:54;;;;;;;19.35;11.13;;;;;;;5.68;94.11;67405.81;6034034;23;20054;-85
2022/04/27 00:33:19;;;;;;;18.67;11.05;;;;;;;;;;6031391;23;20019;-85
2022/04/27 00:35:44;;;;;;;14.73;10.80;;;;;;;;;;6033740;23;20027;-85
2022/04/27 00:38:10;;;;;;;17.75;12.25;;;;;;;5.53;94.92;67390.00;6039250;23;20075;-85
2022/04/27 00:40:35;;;;;;;17.38;11.88;;;;;;;5.48;95.41;67386.97;6039503;23;20038;-85
2022/04/27 00:43:01;;;;;;;17.80;11.38;;;;;;;5.48;95.36;67386.97;6065635;23;20019;-84
2022/04/27 00:45:26;;;;;;;15.45;11.43;;;;;;;5.47;95.46;67391.13;6067414;23;20090;-85
2022/04/27 00:47:51;;;;;;;16.60;11.70;;;;;;;5.40;95.58;67375.84;6043962;23;20023;-84
2022/04/27 00:50:17;;;;;;;14.45;11.85;;;;;;;5.45;95.28;67383.59;6031422;23;20074;-84
2022/04/27 00:52:43;;;;;;;17.85;12.48;;;;;;;5.43;95.07;67384.53;6032894;23;20529;-84
2022/04/27 00:55:10;;;;;;;18.27;11.80;;;;;;;5.39;95.61;67374.72;6033287;23;20023;-85
2022/04/27 00:57:39;;;;;;;17.10;12.23;;;;;;;5.36;95.57;67376.06;6055433;23;20019;-84
2022/04/27 01:00:07;;;;;;;17.98;12.02;;;;;;;5.31;95.81;67365.13;6033373;23;20079;-84
2022/04/27 01:02:33;;;;;;;14.43;12.15;;;;;;;5.31;95.97;67365.13;6007960;23;20016;-84
2022/04/27 01:04:59;;;;;;;18.60;11.60;;;;;;;;;;6033693;23;20023;-85
2022/04/27 01:07:24;;;;;;;17.50;12.02;;;;;;;5.33;95.65;67367.94;6035382;23;20154;-86
2022/04/27 01:09:50;;;;;;;17.20;12.23;;;;;;;5.34;95.46;67374.34;6036664;23;20019;-84
2022/04/27 01:12:16;;;;;;;16.20;12.30;;;;;;;5.30;94.93;67359.28;6034956;23;20022;-85
2022/04/27 01:14:47;;;;;;;16.35;12.18;;;;;;;5.23;95.89;67358.72;6035607;23;20019;-84
2022/04/27 01:17:13;;;;;;;18.40;13.38;;;;;;;5.12;96.28;67346.84;6034782;23;20023;-85
2022/04/27 01:19:39;;;;;;;15.32;12.73;;;;;;;5.07;96.76;67341.22;6033608;23;20492;-85
2022/04/27 01:22:05;;;;;;;17.52;12.73;;;;;;;5.05;96.71;67339.53;6057322;23;20022;-84
2022/04/27 01:24:32;;;;;;;22.02;13.30;;;;;;;5.05;96.71;67336.31;6057175;23;20031;-85
2022/04/27 01:26:59;;;;;;;18.05;14.10;;;;;;;4.89;97.44;67318.81;6035061;23;20078;-85
2022/04/27 01:29:24;;;;;;;17.35;13.27;;;;;;;4.89;97.54;67318.81;6033666;23;20564;-85
2022/04/27 01:31:51;;;;;;;22.33;14.80;;;;;;;4.86;97.77;67321.28;6034078;23;20025;-85
2022/04/27 01:34:17;;;;;;;18.27;14.82;;;;;;;4.80;97.77;67311.84;6035377;23;20023;-85
2022/04/27 01:36:43;;;;;;;20.38;13.90;;;;;;;4.84;97.92;67318.44;6036134;23;20079;-85
2022/04/27 01:39:08;;;;;;;19.25;14.23;;;;;;;4.83;97.87;67317.31;6034229;23;20701;-85
2022/04/27 01:41:36;;;;;;;17.50;13.98;;;;;;;4.82;97.74;67313.56;6033774;23;20283;-85
2022/04/27 01:44:02;;;;;;;19.40;13.75;;;;;;;4.71;98.13;67302.25;6035659;23;20024;-85
2022/04/27 01:46:28;;;;;;;18.10;13.25;;;;;;;4.74;98.09;67303.00;6034631;23;20066;-84
2022/04/27 01:48:54;;;;;;;17.35;13.23;;;;;;;4.68;97.51;67295.66;6035467;23;20095;-84
2022/04/27 01:54:14;;;;;;;17.77;13.27;;;;;;;4.58;97.97;67284.94;6032076;23;20054;-84
2022/04/27 01:54:18;;;;;;;24.33;13.82;;;;;;;4.57;98.59;67288.50;6034536;23;20028;-85
2022/04/27 01:56:48;;;;;;;20.10;13.68;;;;;;;4.56;98.50;67284.75;6034304;23;20123;-86
2022/04/27 01:59:14;;;;;;;20.77;14.02;;;;;;;4.48;98.15;67273.66;6054671;23;20019;-84
2022/04/27 02:01:41;;;;;;;19.33;13.65;;;;;;;4.42;99.32;67266.88;6032835;23;20115;-84
2022/04/27 02:04:06;;;;;;;17.42;13.75;;;;;;;4.42;99.02;67269.50;6054333;23;20211;-85
2022/04/27 02:06:35;;;;;;;20.50;14.80;;;;;;;4.43;99.05;67270.63;6031825;23;20476;-84
2022/04/27 02:09:02;;;;;;;21.63;16.38;;;;;;;4.29;99.27;67253.34;6032974;23;20011;-84
2022/04/27 02:11:27;;;;;;;20.02;15.38;;;;;;;4.32;100.00;67260.88;6031291;23;20015;-84
2022/04/27 02:13:55;;;;;;;20.50;15.55;;;;;;;4.30;99.79;67259.72;6032256;23;20023;-84
2022/04/27 02:16:24;;;;;;;23.83;15.85;;;;;;;4.24;99.39;67258.22;6030457;23;20027;-85
2022/04/27 02:18:49;;;;;;;;;;;;;;;;;;6033921;23;20093;-84
2022/04/27 02:21:16;;;;;;;20.92;14.95;;;;;;;4.09;100.00;67235.47;6031373;23;19913;-84
2022/04/27 02:23:41;;;;;;;22.20;15.25;;;;;;;4.08;100.00;67234.91;6054274;23;20026;-84
2022/04/27 02:26:07;;;;;;;21.30;14.38;;;;;;;4.16;100.00;67240.72;6033367;23;20098;-85
2022/04/27 02:28:32;;;;;;;22.52;13.50;;;;;;;4.12;100.00;67239.41;6054648;23;20042;-85
2022/04/27 02:30:58;;;;;;;20.88;14.57;;;;;;;4.05;99.66;67226.25;6033792;23;20763;-85
2022/04/27 02:33:23;;;;;;;22.00;14.95;;;;;;;4.01;99.99;67224.38;6031667;23;20034;-85
2022/04/27 02:35:49;;;;;;;20.05;14.13;;;;;;;3.94;99.52;67217.03;6033551;23;20019;-84
2022/04/27 02:38:14;;;;;;;20.17;14.13;;;;;;;3.81;100.00;67202.94;6055770;23;20039;-84
2022/04/27 02:40:40;;;;;;;24.30;15.40;;;;;;;3.77;100.00;67200.47;6033305;23;20042;-86
2022/04/27 02:43:05;;;;;;;21.75;14.88;;;;;;;3.72;100.00;67190.16;6033854;23;20027;-85
2022/04/27 02:45:31;;;;;;;18.83;15.10;;;;;;;3.71;100.00;67193.69;6033129;23;20186;-85
2022/04/27 02:47:56;;;;;;;22.85;15.77;;;;;;;3.70;100.00;67193.16;6054528;23;20757;-85
2022/04/27 02:53:06;;;;;;;19.73;15.25;;;;;;;3.56;100.00;67177.34;6032687;23;20026;-85
2022/04/27 02:55:31;;;;;;;21.08;15.50;;;;;;;3.50;100.00;67165.88;6031747;23;20019;-85
2022/04/27 02:57:56;;;;;;;22.75;16.17;;;;;;;3.47;100.00;67167.19;6056248;23;20091;-85
2022/04/27 03:00:22;;;;;;;20.63;15.73;;;;;;;3.34;100.00;67153.66;6055480;23;20055;-85
2022/04/27 03:02:47;;;;;;;23.83;17.17;;;;;;;3.32;100.00;67151.41;6057303;23;20011;-86
2022/04/27 03:05:12;;;;;;;23.88;17.70;;;;;;;3.30;100.00;67145.97;6034655;23;20050;-85
2022/04/27 03:07:38;;;;;;;26.08;17.25;;;;;;;3.26;100.00;67142.00;6033718;23;20086;-86
2022/04/27 03:10:05;;;;;;;28.65;18.52;;;;;;;3.20;100.00;67137.31;6034865;23;20029;-86
2022/04/27 03:12:30;;;;;;;27.42;17.30;;;;;;;3.17;100.00;67131.88;6033570;23;20019;-86
2022/04/27 03:14:55;;;;;;;25.88;17.35;;;;;;;3.17;100.00;67132.44;6056539;23;20047;-86
2022/04/27 03:17:21;;;;;;;30.83;18.33;;;;;;;3.17;100.00;67134.50;6031118;23;20023;-84
2022/04/27 03:19:47;;;;;;;26.65;18.55;;;;;;;3.06;100.00;67116.84;6054867;23;20521;-84
2022/04/27 03:22:12;;;;;;;28.30;17.48;;;;;;;3.11;100.00;67125.09;6032593;23;20019;-84
2022/04/27 03:24:38;;;;;;;26.55;18.52;;;;;;;3.05;100.00;67120.94;6053919;23;20080;-84
2022/04/27 03:27:03;;;;;;;26.58;18.60;;;;;;;2.97;100.00;67109.88;6032189;23;20083;-84
2022/04/27 03:29:29;;;;;;;26.73;18.30;;;;;;;2.94;100.00;67111.75;6054115;23;20016;-85
2022/04/27 03:31:54;;;;;;;25.00;18.65;;;;;;;2.92;100.00;67104.81;6031041;23;20015;-84
2022/04/27 03:34:19;;;;;;;25.80;18.45;;;;;;;2.91;100.00;67108.94;6031080;23;20158;-85
2022/04/27 03:36:45;;;;;;;24.80;18.30;;;;;;;2.90;100.00;67102.53;6055331;23;20404;-85
2022/04/27 03:39:10;;;;;;;27.52;19.52;;;;;;;2.87;100.00;67099.16;6054247;23;20118;-84
2022/04/27 03:41:36;;;;;;;25.33;18.20;;;;;;;2.88;100.00;67097.09;6031585;23;20019;-84
2022/04/27 03:44:01;;;;;;;25.42;17.85;;;;;;;2.84;100.00;67098.41;6039083;23;20056;-84
2022/04/27 03:46:26;;;;;;;25.85;18.15;;;;;;;2.80;100.00;67091.28;6079237;23;20071;-83
2022/04/27 03:48:52;;;;;;;27.73;19.13;;;;;;;2.74;100.00;67089.78;6055955;23;20331;-85
2022/04/27 03:51:17;;;;;;;28.83;18.95;;;;;;;2.72;100.00;67085.44;6031682;23;20026;-85
2022/04/27 03:53:42;;;;;;;26.20;18.77;;;;;;;;;;6032401;23;20446;-85
2022/04/27 03:56:08;;;;;;;25.13;18.17;;;;;;;2.68;100.00;67075.13;6110903;23;20036;-77
2022/04/27 03:58:33;;;;;;;25.42;18.65;;;;;;;2.66;100.00;67076.06;6123301;23;20018;-78
2022/04/27 04:00:59;;;;;;;27.30;20.48;;;;;;;2.60;100.00;67071.38;6123512;23;20010;-78
2022/04/27 04:03:24;;;;;;;25.08;18.67;;;;;;;2.52;100.00;67062.91;6120394;23;20025;-78
2022/04/27 04:05:50;;;;;;;29.00;19.00;;;;;;;2.54;100.00;67061.97;6120522;23;20044;-77
2022/04/27 04:08:15;;;;;;;31.13;20.30;;;;;;;2.51;100.00;67061.78;6121661;23;20379;-79
2022/04/27 04:10:41;;;;;;;25.50;19.10;;;;;;;;;;6122224;23;20018;-80
2022/04/27 04:13:06;;;;;;;26.13;19.08;;;;;;;2.46;100.00;67051.44;6121631;23;20403;-79
2022/04/27 04:15:32;;;;;;;26.60;20.05;;;;;;;2.44;100.00;67051.81;6121913;23;20073;-77
2022/04/27 04:17:58;;;;;;;27.33;18.83;;;;;;;2.40;100.00;67049.94;6119880;23;20014;-80
2022/04/27 04:20:23;;;;;;;30.23;19.67;;;;;;;2.40;100.00;67049.38;6120237;23;20052;-79
2022/04/27 04:22:49;;;;;;;29.92;20.88;;;;;;;2.41;100.00;67050.50;6122309;23;20021;-79
2022/04/27 04:30:44;;;;;;;30.35;20.60;;;;;;;2.37;100.00;67043.94;6122396;23;20017;-80
2022/04/27 04:33:10;;;;;;;27.27;19.83;;;;;;;2.35;100.00;67041.69;6124492;23;20014;-81
2022/04/27 04:35:36;;;;;;;28.25;20.77;;;;;;;;;;6122800;23;20092;-79
2022/04/27 04:38:02;;;;;;;26.95;19.88;;;;;;;2.33;100.00;67038.84;6124244;23;20029;-77
2022/04/27 04:40:27;;;;;;;27.48;20.27;;;;;;;2.31;100.00;67039.25;6123570;23;20026;-79
2022/04/27 04:42:53;;;;;;;28.05;20.13;;;;;;;2.31;100.00;67042.44;6126271;23;20064;-79
2022/04/27 04:45:19;;;;;;;29.45;21.23;;;;;;;2.31;100.00;67034.56;6129654;23;20018;-81
2022/04/27 04:47:44;;;;;;;29.48;21.20;;;;;;;2.32;100.00;67037.75;6130562;23;20018;-80
2022/04/27 04:50:11;;;;;;;32.50;22.50;;;;;;;2.30;100.00;67035.47;6129952;23;20022;-79
2022/04/27 04:52:37;;;;;;;31.90;23.38;;;;;;;2.31;100.00;67034.00;6129568;23;20069;-79
2022/04/27 04:55:03;;;;;;;33.58;21.48;;;;;;;2.36;100.00;67042.81;6130795;23;20018;-81
2022/04/27 04:57:28;;;;;;;35.58;22.33;;;;;;;2.36;100.00;67044.88;6130028;23;20021;-80
2022/04/27 04:59:54;;;;;;;32.47;22.50;;;;;;;2.40;100.00;67046.75;6129383;23;20018;-77
2022/04/27 05:02:19;;;;;;;29.15;22.98;;;;;;;2.42;100.00;67049.03;6120615;23;20093;-81
2022/04/27 05:04:45;;;;;;;32.80;22.40;;;;;;;2.43;100.00;67053.31;6123916;23;20014;-81
2022/04/27 05:07:11;;;;;;;37.42;22.10;;;;;;;2.41;100.00;67047.88;6124336;23;20070;-80
2022/04/27 05:09:36;;;;;;;30.85;22.83;;;;;;;2.49;100.00;67057.47;6123659;23;20014;-80
2022/04/27 05:12:02;;;;;;;31.27;22.58;;;;;;;2.61;100.00;67073.03;6126144;23;20029;-80
2022/04/27 05:14:28;;;;;;;30.90;21.23;;;;;;;2.67;100.00;67074.00;6124668;23;20018;-78
2022/04/27 05:16:53;;;;;;;33.72;22.73;;;;;;;2.77;100.00;67084.72;6126049;23;20498;-81
2022/04/27 05:19:18;;;;;;;29.10;21.17;;;;;;;2.86;100.00;67094.84;6125774;23;20332;-81
2022/04/27 05:21:46;;;;;;;34.45;23.30;;;;;;;2.92;100.00;67102.16;6125870;23;20078;-78
2022/04/27 05:24:11;;;;;;;29.95;21.35;;;;;;;3.01;100.00;67111.19;6124840;23;20333;-80
2022/04/27 05:26:37;;;;;;;31.85;21.17;;;;;;;3.07;100.00;67117.97;6123896;23;20021;-78
2022/04/27 05:31:57;;;;;;;30.42;21.50;;;;;;;3.29;100.00;67150.66;6119818;23;20033;-80
2022/04/27 05:34:24;;;;;;;35.20;23.08;;;;;;;3.41;100.00;67160.44;6120723;23;20014;-79
2022/04/27 05:36:50;;;;;;;31.13;23.17;;;;;;;3.53;100.00;67173.97;6122680;23;20455;-78
2022/04/27 05:39:21;;;;;;;34.70;23.55;;;;;;;3.62;100.00;67181.47;6121953;23;20085;-79
2022/04/27 05:41:47;;;;;;;31.80;21.88;;;;;;;3.81;100.00;67202.38;6119992;23;20069;-80
2022/04/27 05:44:13;;;;;;;32.47;23.63;;;;;;;3.96;100.00;67224.00;6120060;23;20018;-79
2022/04/27 05:46:39;;;;;;;29.40;22.33;;;;;;;4.05;100.00;67226.81;6121534;23;20216;-81
2022/04/27 05:49:05;;;;;;;33.35;22.00;;;;;;;4.17;100.00;67241.84;6122027;23;20029;-81
2022/04/27 05:51:30;;;;;;;34.05;22.67;;;;;;;4.28;100.00;67254.84;6120283;23;20018;-77
2022/04/27 05:53:56;;;;;;;33.55;22.33;;;;;;;4.44;100.00;67271.78;6120581;23;20029;-78
2022/04/27 05:56:22;;;;;;;31.40;21.58;;;;;;;4.54;100.00;67283.06;6118954;23;20032;-78
2022/04/27 05:58:48;;;;;;;32.03;21.45;;;;;;;4.67;100.00;67295.09;6122602;23;20088;-80
2022/04/27 06:01:13;;;;;;;30.23;21.85;;;;;;;4.83;100.00;67312.59;6122555;23;20040;-76
2022/04/27 06:03:39;;;;;;;32.33;21.10;;;;;;;4.95;100.00;67326.16;6120925;23;20383;-78
2022/04/27 06:06:04;;;;;;;30.70;22.33;;;;;;;5.03;100.00;67339.34;6120310;23;20084;-79
2022/04/27 06:08:30;;;;;;;25.05;19.83;;;;;;;5.15;100.00;67348.19;6122108;23;20025;-77
2022/04/27 06:10:55;;;;;;;25.35;19.65;;;;;;;5.32;100.00;67366.25;6122413;23;20093;-78
2022/04/27 06:13:20;;;;;;;30.30;21.02;;;;;;;5.40;100.00;67375.84;6120385;23;20073;-76
2022/04/27 06:15:46;;;;;;;25.90;18.75;;;;;;;5.57;100.00;67399.22;6121277;23;20025;-77
2022/04/27 06:18:11;;;;;;;28.45;19.48;;;;;;;5.73;100.00;67412.03;6119167;23;20133;-79
2022/04/27 06:20:36;;;;;;;25.30;18.95;;;;;;;;;;6121081;23;20619;-79
2022/04/27 06:23:02;;;;;;;26.00;18.75;;;;;;;6.00;99.77;67442.00;6121634;23;20358;-79
2022/04/27 06:25:27;;;;;;;25.15;16.85;;;;;;;6.12;98.85;67455.00;6120367;23;20025;-77
2022/04/27 06:27:52;;;;;;;22.40;17.13;;;;;;;;;;6119943;23;20014;-76
2022/04/27 06:30:18;;;;;;;22.63;17.25;;;;;;;6.38;98.26;67486.47;6121975;23;20056;-80
2022/04/27 06:32:43;;;;;;;21.85;15.70;;;;;;;6.44;97.81;67490.59;6120558;23;20041;-78
2022/04/27 06:35:13;;;;;;;21.63;15.82;;;;;;;6.60;97.96;67507.59;6122436;23;20468;-78
2022/04/27 06:37:41;;;;;;;21.27;15.13;;;;;;;6.72;96.61;67521.72;6121832;23;20092;-78
2022/04/27 06:40:08;;;;;;;17.95;13.93;;;;;;;6.86;96.48;67536.44;6121196;23;20582;-79
2022/04/27 06:42:34;;;;;;;17.23;12.40;;;;;;;;;;6118567;23;20018;-80
2022/04/27 06:45:00;;;;;;;21.00;11.75;;;;;;;7.11;93.56;67564.16;6120120;23;20028;-79
2022/04/27 06:47:25;;;;;;;20.25;11.65;;;;;;;7.23;93.36;67580.38;6120319;23;20077;-78
2022/04/27 06:49:51;;;;;;;14.38;10.75;;;;;;;7.34;92.25;67589.63;6122613;23;20479;-74
2022/04/27 06:52:16;;;;;;;12.82;9.70;;;;;;;7.55;90.96;67612.81;6121599;23;20030;-77
2022/04/27 06:54:42;;;;;;;15.55;9.75;;;;;;;7.62;90.44;67621.31;6121280;23;20018;-78
2022/04/27 06:57:07;;;;;;;16.48;9.88;;;;;;;7.67;89.55;67626.38;6122958;23;20014;-77
2022/04/27 06:59:33;;;;;;;14.07;10.00;;;;;;;7.76;89.97;67636.56;6121586;23;20021;-77
2022/04/27 07:01:58;;;;;;;11.98;7.57;;;;;;;7.85;86.25;67648.84;6120190;23;20025;-76
2022/04/27 07:04:24;;;;;;;13.05;8.93;;;;;;;7.93;86.86;67655.25;6120682;23;20037;-77
2022/04/27 07:06:49;;;;;;;14.88;8.63;;;;;;;7.98;86.70;67660.91;6122267;23;20126;-77
2022/04/27 07:09:14;;;;;;;10.60;6.50;;;;;;;8.03;82.56;67660.72;6122111;23;20021;-76
2022/04/27 07:11:42;;;;;;;8.25;5.53;;;;;;;;;;6120929;23;20085;-78
2022/04/27 07:14:10;;;;;;;9.77;6.00;;;;;;;;;;6121844;23;20451;-77
2022/04/27 07:16:35;;;;;;;12.88;5.80;;;;;;;8.41;79.94;67707.94;6120140;23;20017;-78
2022/04/27 07:19:01;;;;;;;10.45;6.20;;;;;;;8.49;79.22;67711.72;6122274;23;20025;-78
2022/04/27 07:21:26;;;;;;;13.50;7.03;;;;;;;8.43;79.03;67710.19;6121747;23;20025;-79
2022/04/27 07:23:51;;;;;;;10.88;7.00;;;;;;;8.44;79.94;67706.03;6119760;23;20029;-78
2022/04/27 07:26:17;;;;;;;11.10;6.00;;;;;;;;;;6122610;23;20022;-80
2022/04/27 07:28:42;;;;;;;9.98;5.38;;;;;;;;;;6121875;23;20477;-74
2022/04/27 07:31:09;;;;;;;7.63;4.38;;;;;;;8.72;75.32;67748.38;6121239;23;20028;-79
2022/04/27 07:33:34;;;;;;;6.43;3.40;;;;;;;;;;6120622;23;20101;-78
2022/04/27 07:36:00;;;;;;;7.10;3.58;;;;;;;8.95;70.59;67773.31;6124335;23;20199;-79
2022/04/27 07:38:27;;;;;;;5.22;2.45;;;;;;;8.90;66.33;67762.34;6124776;23;20013;-79
2022/04/27 07:40:52;;;;;;;9.48;3.40;;;;;;;;;;6125912;23;20018;-78
2022/04/27 07:43:18;;;;;;;5.15;2.30;;;;;;;9.16;66.10;67793.88;6124900;23;20557;-79
2022/04/27 07:45:44;;;;;;;7.78;4.30;;;;;;;9.10;67.21;67779.69;6123565;23;20037;-78
2022/04/27 07:48:09;;;;;;;8.95;4.80;;;;;;;;;;6125457;23;20014;-79
2022/04/27 07:50:35;;;;;;;9.02;5.38;;;;;;;;;;6125267;23;20351;-77
2022/04/27 07:53:00;;;;;;;10.05;5.05;;;;;;;;;;6125166;23;20513;-78
2022/04/27 07:55:26;;;;;;;8.38;4.82;;;;;;;9.40;68.88;67817.88;6123258;23;20026;-79
2022/04/27 07:57:51;;;;;;;6.43;4.30;;;;;;;9.36;67.41;67813.34;6123737;23;20093;-78
2022/04/27 08:00:16;;;;;;;6.10;3.28;;;;;;;;;;6123925;23;20021;-79
2022/04/27 08:02:42;;;;;;;5.93;3.33;;;;;;;;;;6120955;23;20097;-79
2022/04/27 08:05:09;;;;;;;7.05;3.13;;;;;;;9.60;64.02;67839.97;6123872;23;20025;-78
2022/04/27 08:07:40;;;;;;;6.65;2.70;;;;;;;9.79;66.99;67861.53;6122681;23;20014;-79
2022/04/27 08:10:14;;;;;;;5.90;3.55;;;;;;;9.72;64.13;67853.56;6126878;23;20040;-78
2022/04/27 08:12:40;;;;;;;7.93;3.28;;;;;;;9.78;65.18;67859.81;6123594;23;20056;-77
2022/04/27 08:15:06;;;;;;;5.22;3.55;;;;;;;;;;6126361;23;20025;-78
2022/04/27 08:17:32;;;;;;;6.05;3.13;;;;;;;9.74;63.31;67855.28;6122315;23;20021;-79
2022/04/27 08:22:41;;;;;;;6.07;3.65;;;;;;;;;;6125568;23;20021;-79
2022/04/27 08:25:07;;;;;;;8.00;4.03;;;;;;;9.95;63.18;67873.78;6127032;23;20014;-79
2022/04/27 08:27:32;;;;;;;5.32;3.90;;;;;;;;;;6124775;23;20261;-80
2022/04/27 08:29:58;;;;;;;7.60;4.43;;;;;;;9.76;65.04;67858.13;6125191;23;20022;-79
2022/04/27 08:32:23;;;;;;;10.73;3.95;;;;;;;9.90;64.10;67868.69;6123835;23;20646;-80
2022/04/27 08:34:51;;;;;;;9.73;4.28;;;;;;;10.22;63.66;67911.81;6124862;23;20385;-75
2022/04/27 08:37:16;;;;;;;6.37;3.80;;;;;;;;;;6126115;23;20017;-80
2022/04/27 08:39:42;;;;;;;6.25;3.75;;;;;;;;;;6126074;23;20085;-81
2022/04/27 08:42:09;;;;;;;7.43;4.53;;;;;;;10.51;62.28;67940.97;6123671;23;20058;-80
2022/04/27 08:44:35;;;;;;;6.63;4.47;;;;;;;;;;6125163;23;20512;-81
2022/04/27 08:47:01;;;;;;;7.45;3.85;;;;;;;;;;6124862;23;20468;-81
2022/04/27 08:49:26;;;;;;;6.72;3.80;;;;;;;10.66;62.03;67957.41;6124305;23;20050;-80
2022/04/27 08:51:53;;;;;;;9.25;4.93;;;;;;;10.61;60.99;67952.28;6125929;23;20364;-80
2022/04/27 08:54:19;;;;;;;7.00;4.65;;;;;;;10.69;60.99;67955.50;6126496;23;20026;-81
2022/04/27 08:56:44;;;;;;;9.38;4.57;;;;;;;;;;6127759;23;20022;-81
2022/04/27 08:59:10;;;;;;;7.50;4.25;;;;;;;;;;6127080;23;20101;-81
2022/04/27 09:01:35;;;;;;;7.55;3.50;;;;;;;;;;6127443;23;20018;-78
2022/04/27 09:04:15;;;;;;;7.38;2.70;;;;;;;11.21;59.48;68021.94;6126906;23;20026;-80
2022/04/27 09:06:41;;;;;;;7.35;3.50;;;;;;;11.21;58.56;68018.72;6127520;23;20014;-81
2022/04/27 09:09:13;;;;;;;5.18;2.85;;;;;;;11.03;59.73;67994.06;6128222;23;20084;-81
2022/04/27 09:11:38;;;;;;;6.13;3.35;;;;;;;;;;6127265;23;20025;-80
2022/04/27 09:14:06;;;;;;;7.10;3.63;;;;;;;;;;6128022;23;20018;-79
2022/04/27 09:22:10;;;;;;;7.55;3.95;;;;;;;11.12;59.82;68008.50;6123746;23;20103;-79
2022/04/27 09:24:57;;;;;;;5.95;3.53;;;;;;;11.21;59.13;68019.28;6121297;23;20025;-81
2022/04/27 09:27:24;;;;;;;6.00;3.80;;;;;;;11.26;58.88;68024.94;6123587;23;20356;-78
2022/04/27 09:29:59;;;;;;;6.85;3.75;;;;;;;;;;6122991;23;20021;-78
2022/04/27 09:32:25;;;;;;;5.93;3.90;;;;;;;11.01;60.12;67997.13;6120797;23;20026;-75
2022/04/27 09:34:51;;;;;;;8.48;3.33;;;;;;;;;;6122282;23;20097;-78
2022/04/27 09:37:27;;;;;;;5.35;3.13;;;;;;;;;;6122272;23;20022;-78
2022/04/27 09:40:14;;;;;;;7.68;3.17;;;;;;;;;;6096960;23;20018;-75
2022/04/27 09:42:43;;;;;;;5.03;3.08;;;;;;;11.11;59.22;68007.38;6122197;23;20022;-78
2022/04/27 09:45:19;;;;;;;6.43;3.80;;;;;;;;;;6124141;23;20021;-74
2022/04/27 09:47:48;;;;;;;8.32;3.67;;;;;;;;;;6120143;23;20100;-77
2022/04/27 09:50:14;;;;;;;8.02;4.20;;;;;;;11.71;56.49;68074.38;6120237;23;20097;-75
2022/04/27 09:52:40;;;;;;;5.72;4.43;;;;;;;11.65;57.25;68067.53;6122281;23;20033;-78
2022/04/27 09:55:07;;;;;;;5.75;4.00;;;;;;;11.54;56.35;68055.63;6113645;23;20023;-84
2022/04/27 09:57:38;;;;;;;6.72;3.80;;;;;;;11.43;56.24;68045.78;6088294;23;20018;-85
2022/04/27 10:00:05;;;;;;;5.80;4.15;;;;;;;11.28;56.25;68026.66;6090045;23;20069;-84
2022/04/27 10:02:32;;;;;;;6.72;4.07;;;;;;;11.32;56.73;68031.19;6093105;23;20014;-85
2022/04/27 10:04:59;;;;;;;6.18;4.10;;;;;;;11.20;57.48;68018.13;6088796;23;20022;-84
2022/04/27 10:07:25;;;;;;;8.43;4.22;;;;;;;11.42;58.43;68036.66;6090524;23;20073;-84
2022/04/27 10:09:52;;;;;;;6.70;3.88;;;;;;;11.71;57.93;68066.94;6074322;23;20018;-84
2022/04/27 10:12:17;;;;;;;6.32;4.10;;;;;;;;;;6077070;23;20026;-84
2022/04/27 10:14:43;;;;;;;7.50;3.60;;;;;;;12.18;56.19;68126.63;6092236;23;20532;-84
2022/04/27 10:17:12;;;;;;;6.05;4.07;;;;;;;;;;6087445;23;20135;-85
2022/04/27 10:19:44;;;;;;;8.10;4.38;;;;;;;12.19;55.82;68127.78;6063623;23;20028;-84
2022/04/27 10:22:24;;;;;;;5.82;3.45;;;;;;;;;;6089408;23;20397;-84
2022/04/27 10:24:50;;;;;;;7.40;3.63;;;;;;;;;;6089344;23;20021;-84
2022/04/27 10:27:34;;;;;;;8.65;4.25;;;;;;;11.99;58.58;68099.72;6090335;23;20048;-84
2022/04/27 10:30:05;;;;;;;7.53;3.38;;;;;;;12.07;56.24;68116.81;6018895;23;20352;-84
2022/04/27 10:32:42;;;;;;;5.72;3.53;;;;;;;11.78;56.02;68076.97;6062459;23;20389;-85
2022/04/27 10:35:27;;;;;;;4.78;3.05;;;;;;;;;;6064219;23;20018;-84
2022/04/27 10:37:59;;;;;;;5.07;3.20;;;;;;;;;;6090100;23;20100;-84
2022/04/27 10:40:35;;;;;;;6.10;3.03;;;;;;;12.57;55.44;68164.47;6063765;23;20021;-85
2022/04/27 10:43:20;;;;;;;7.18;3.35;;;;;;;;;;6090194;23;20049;-84
2022/04/27 10:45:48;;;;;;;6.38;2.72;;;;;;;;;;6063564;23;20018;-85
2022/04/27 10:48:46;;;;;;;5.22;2.78;;;;;;;12.45;51.77;68156.19;6089501;23;20030;-85
2022/04/27 10:51:11;;;;;;;10.18;3.53;;;;;;;;;;6021979;23;20109;-84
2022/04/27 10:53:41;;;;;;;6.28;3.20;;;;;;;12.42;50.92;68153.34;6087662;23;20042;-85
2022/04/27 10:56:26;;;;;;;4.82;2.75;;;;;;;12.56;53.44;68163.34;6075714;23;20026;-84
2022/04/27 10:58:52;;;;;;;7.38;3.03;;;;;;;12.53;53.94;68165.28;6089156;23;20018;-85
2022/04/27 11:01:28;;;;;;;6.35;2.90;;;;;;;;;;6087614;23;20348;-85
2022/04/27 11:03:59;;;;;;;6.07;3.30;;;;;;;12.53;52.98;68165.84;6089453;23;20022;-84
2022/04/27 11:06:24;;;;;;;6.47;3.13;;;;;;;;;;6089333;23;20069;-85
2022/04/27 11:09:16;;;;;;;5.25;3.15;;;;;;;12.83;53.51;68194.03;6089645;23;20022;-84
2022/04/27 11:11:52;;;;;;;7.53;3.00;;;;;;;;;;6089191;23;20396;-85
2022/04/27 11:14:18;;;;;;;5.32;2.92;;;;;;;;;;6087615;23;20360;-85
2022/04/27 11:16:47;;;;;;;3.40;2.30;;;;;;;12.95;53.38;68207.13;6089915;23;20017;-85
2022/04/27 11:19:13;;;;;;;5.07;2.80;;;;;;;;;;6093585;23;20027;-85
2022/04/27 11:21:38;;;;;;;4.97;2.70;;;;;;;;;;6087915;23;20082;-85
2022/04/27 11:24:06;;;;;;;4.03;2.60;;;;;;;13.57;50.70;68275.94;6088316;23;20335;-84
2022/04/27 11:26:39;;;;;;;5.10;2.53;;;;;;;;;;6086321;23;20722;-84
2022/04/27 11:29:06;;;;;;;8.68;3.10;;;;;;;13.47;50.22;68264.56;6088163;23;20093;-85
2022/04/27 11:31:31;;;;;;;4.13;2.65;;;;;;;;;;6088085;23;20085;-85
2022/04/27 11:33:56;;;;;;;6.22;3.03;;;;;;;13.44;49.31;68261.16;6089448;23;20608;-84
2022/04/27 11:36:22;;;;;;;5.30;2.70;;;;;;;;;;6087385;23;20015;-85
2022/04/27 11:38:48;;;;;;;4.65;2.75;;;;;;;13.61;51.16;68279.91;6088492;23;20022;-85
2022/04/27 11:41:20;;;;;;;7.25;3.08;;;;;;;13.61;49.88;68280.50;6087735;23;20040;-85
2022/04/27 11:43:47;;;;;;;5.13;2.72;;;;;;;13.62;49.51;68278.94;6087888;23;20322;-85
2022/04/27 11:46:12;;;;;;;6.43;3.08;;;;;;;13.61;50.83;68279.91;6088800;23;20134;-85
2022/04/27 11:48:38;;;;;;;4.35;3.03;;;;;;;13.60;49.08;68279.34;6088598;23;20392;-85
2022/04/27 11:51:06;;;;;;;5.90;2.90;;;;;;;13.48;47.59;68271.03;6087844;23;20094;-84
2022/04/27 11:53:43;;;;;;;5.75;2.90;;;;;;;13.72;48.18;68293.00;6085968;23;20021;-85
2022/04/27 11:56:09;;;;;;;4.57;2.85;;;;;;;13.82;48.86;68300.56;6088031;23;20018;-84
2022/04/27 11:58:34;;;;;;;4.75;2.55;;;;;;;14.05;49.10;68329.41;6088759;23;20049;-85
2022/04/27 12:01:00;;;;;;;6.70;3.40;;;;;;;;;;6085826;23;20025;-84
2022/04/27 12:03:27;;;;;;;6.30;3.00;;;;;;;14.51;46.51;68380.63;6085676;23;20022;-85
2022/04/27 12:05:53;;;;;;;4.90;2.85;;;;;;;14.44;44.97;68369.97;6087358;23;20026;-85
2022/04/27 12:08:21;;;;;;;5.93;2.83;;;;;;;14.36;47.38;68368.91;6086908;23;20133;-84
2022/04/27 12:10:47;;;;;;;4.03;2.67;;;;;;;14.42;44.52;68370.38;6087337;23;20022;-84
2022/04/27 12:13:13;;;;;;;5.68;2.90;;;;;;;;;;6086463;23;20023;-85
2022/04/27 12:15:41;;;;;;;6.95;3.58;;;;;;;14.71;45.56;68402.84;6088397;23;20025;-84
2022/04/27 12:18:13;;;;;;;6.13;3.38;;;;;;;;;;6089127;23;20828;-85